Time;durP1;ratioP1;P1;durP2;ratioP2;P2;SDS_P1;SDS_P2;PMS_P1;PMS_P2;Temp;Humidity;BMP_temperature;BMP_pressure;BME280_temperature;BME280_humidity;BME280_pressure;Samples;Min_cycle;Max_cycle;Signal;HPM_P1;HPM_P2
2022/12/01 00:01:56;;;;;;;20.25;12.27;;;;;;;;;;5074087;28;20482;-58
2022/12/01 00:04:21;;;;;;;23.08;12.55;;;;;;;;;;5070053;28;20566;-58
2022/12/01 00:06:48;;;;;;;22.60;11.68;;;;;;;;;;5072691;28;20048;-58
2022/12/01 00:11:57;;;;;;;24.95;12.02;;;;;;;;;;5070908;28;20039;-58
2022/12/01 00:14:22;;;;;;;21.88;10.85;;;;;;;;;;5070773;28;20268;-58
2022/12/01 00:16:48;;;;;;;19.58;10.82;;;;;;;;;;5079268;28;20020;-58
2022/12/01 00:19:13;;;;;;;19.83;11.50;;;;;;;;;;5075306;28;20024;-58
2022/12/01 00:21:38;;;;;;;20.55;10.55;;;;;;;;;;5070616;28;20012;-58
2022/12/01 00:24:03;;;;;;;18.20;10.30;;;;;;;;;;5077996;28;20039;-58
2022/12/01 00:26:29;;;;;;;19.50;10.38;;;;;;;;;;5074873;28;20478;-58
2022/12/01 00:28:55;;;;;;;19.67;11.15;;;;;;;;;;5066152;28;20036;-58
2022/12/01 00:31:20;;;;;;;18.75;10.35;;;;;;;;;;5069549;28;20102;-58
2022/12/01 00:33:45;;;;;;;20.98;11.05;;;;;;;;;;5073301;28;20126;-58
2022/12/01 00:36:11;;;;;;;21.02;11.32;;;;;;;;;;5066876;28;20028;-58
2022/12/01 00:38:36;;;;;;;20.67;11.25;;;;;;;;;;5076701;28;20032;-58
2022/12/01 00:41:01;;;;;;;19.80;11.30;;;;;;;;;;5069884;28;20386;-58
2022/12/01 00:43:27;;;;;;;18.95;10.85;;;;;;;;;;5070414;28;20483;-59
2022/12/01 00:45:52;;;;;;;19.27;10.60;;;;;;;;;;5077106;28;20246;-58
2022/12/01 00:48:17;;;;;;;21.40;10.95;;;;;;;;;;5071802;28;20036;-58
2022/12/01 00:50:42;;;;;;;22.38;10.85;;;;;;;;;;5065595;28;20491;-58
2022/12/01 00:53:08;;;;;;;17.27;10.63;;;;;;;;;;5068581;28;20036;-58
2022/12/01 00:55:33;;;;;;;18.70;10.57;;;;;;;;;;5074098;28;20491;-59
2022/12/01 00:57:58;;;;;;;19.42;10.73;;;;;;;;;;5076832;28;20016;-58
2022/12/01 01:00:23;;;;;;;22.60;11.55;;;;;;;;;;5073227;28;20511;-58
2022/12/01 01:02:49;;;;;;;19.95;10.70;;;;;;;;;;5076011;28;20043;-58
2022/12/01 01:05:14;;;;;;;20.48;10.80;;;;;;;;;;5065932;28;20562;-59
2022/12/01 01:07:39;;;;;;;19.10;10.35;;;;;;;;;;5071305;28;20032;-58
2022/12/01 01:10:05;;;;;;;22.25;11.25;;;;;;;;;;5071785;28;20152;-56
2022/12/01 01:12:30;;;;;;;21.38;11.10;;;;;;;;;;5076225;28;20030;-56
2022/12/01 01:14:55;;;;;;;20.80;10.77;;;;;;;;;;5077702;28;20028;-59
2022/12/01 01:17:20;;;;;;;19.42;10.60;;;;;;;;;;5073387;28;20051;-56
2022/12/01 01:19:46;;;;;;;19.75;10.35;;;;;;;;;;5075728;28;20104;-58
2022/12/01 01:22:11;;;;;;;20.38;10.15;;;;;;;;;;5072869;28;20063;-58
2022/12/01 01:24:36;;;;;;;21.45;10.85;;;;;;;;;;5071957;28;20382;-58
2022/12/01 01:27:02;;;;;;;18.85;10.50;;;;;;;;;;5077286;28;20040;-58
2022/12/01 01:29:27;;;;;;;20.27;11.05;;;;;;;;;;5072152;28;20028;-57
2022/12/01 01:31:52;;;;;;;23.98;11.95;;;;;;;;;;5076633;28;20106;-58
2022/12/01 01:34:17;;;;;;;21.25;11.30;;;;;;;;;;5072643;28;20032;-58
2022/12/01 01:36:43;;;;;;;24.58;11.32;;;;;;;;;;5079403;28;20481;-58
2022/12/01 01:39:08;;;;;;;19.70;10.85;;;;;;;;;;5074235;28;20062;-58
2022/12/01 01:41:33;;;;;;;18.77;10.95;;;;;;;;;;5077450;28;20024;-58
2022/12/01 01:44:02;;;;;;;20.00;10.82;;;;;;;;;;5078886;28;20027;-58
2022/12/01 01:46:27;;;;;;;18.98;9.95;;;;;;;;;;5072239;28;20040;-58
2022/12/01 01:48:52;;;;;;;20.77;11.30;;;;;;;;;;5076432;28;20108;-58
2022/12/01 01:51:19;;;;;;;18.25;9.80;;;;;;;;;;5074457;28;20239;-58
2022/12/01 01:53:44;;;;;;;16.15;8.43;;;;;;;;;;5080288;28;20368;-58
2022/12/01 01:56:10;;;;;;;19.08;9.57;;;;;;;;;;5076487;28;20123;-57
2022/12/01 01:58:35;;;;;;;15.18;8.77;;;;;;;;;;5080452;28;20012;-59
2022/12/01 02:01:00;;;;;;;17.85;9.48;;;;;;;;;;5072598;28;20032;-58
2022/12/01 02:03:26;;;;;;;17.00;8.60;;;;;;;;;;5077118;28;20052;-59
2022/12/01 02:05:51;;;;;;;15.55;8.90;;;;;;;;;;5072728;28;20041;-58
2022/12/01 02:08:16;;;;;;;16.02;7.80;;;;;;;;;;5070714;28;20390;-58
2022/12/01 02:10:42;;;;;;;15.65;8.05;;;;;;;;;;5066626;28;20027;-58
2022/12/01 02:13:07;;;;;;;12.57;7.43;;;;;;;;;;5073365;28;20067;-58
2022/12/01 02:15:52;;;;;;;13.45;7.22;;;;;;;;;;5071482;28;20063;-58
2022/12/01 02:18:18;;;;;;;13.63;6.90;;;;;;;;;;5068476;28;20318;-58
2022/12/01 02:20:58;;;;;;;12.35;6.72;;;;;;;;;;5079853;28;20024;-58
2022/12/01 02:23:24;;;;;;;;;;;;;;;;;;5075891;28;20070;-57
2022/12/01 02:25:50;;;;;;;13.68;6.88;;;;;;;;;;5072541;28;19956;-58
2022/12/01 02:28:25;;;;;;;12.55;6.70;;;;;;;;;;5071962;28;20025;-58
2022/12/01 02:30:50;;;;;;;13.10;6.82;;;;;;;;;;5070813;28;20025;-58
2022/12/01 02:33:15;;;;;;;16.05;7.35;;;;;;;;;;5074920;28;20122;-58
2022/12/01 02:35:46;;;;;;;11.82;7.05;;;;;;;;;;5077570;28;20108;-58
2022/12/01 02:38:30;;;;;;;12.00;7.13;;;;;;;;;;5071827;28;20092;-57
2022/12/01 02:41:00;;;;;;;11.43;6.70;;;;;;;;;;5068800;28;20090;-57
2022/12/01 02:43:51;;;;;;;14.70;7.45;;;;;;;;;;5073581;28;20027;-58
2022/12/01 02:46:18;;;;;;;10.32;6.65;;;;;;;;;;5071693;28;20557;-57
2022/12/01 02:48:45;;;;;;;12.30;7.28;;;;;;;;;;5063025;28;20107;-58
2022/12/01 02:51:16;;;;;;;10.63;6.63;;;;;;;;;;5071232;28;20375;-58
2022/12/01 02:53:42;;;;;;;11.65;7.20;;;;;;;;;;5068058;28;20101;-58
2022/12/01 02:56:09;;;;;;;13.00;7.32;;;;;;;;;;5079463;28;20470;-58
2022/12/01 02:58:34;;;;;;;12.77;7.15;;;;;;;;;;5072813;28;20024;-58
2022/12/01 03:01:13;;;;;;;11.15;7.13;;;;;;;;;;5068479;28;20028;-58
2022/12/01 03:03:54;;;;;;;12.23;7.18;;;;;;;;;;5073797;28;20028;-57
2022/12/01 03:06:22;;;;;;;10.27;5.30;;;;;;;;;;5068421;28;20045;-58
2022/12/01 03:08:50;;;;;;;12.27;6.93;;;;;;;;;;5076860;28;20028;-58
2022/12/01 03:11:25;;;;;;;11.95;6.82;;;;;;;;;;5067814;28;20040;-58
2022/12/01 03:14:01;;;;;;;16.73;6.63;;;;;;;;;;5071527;28;20028;-57
2022/12/01 03:16:27;;;;;;;12.13;6.03;;;;;;;;;;5068984;28;20469;-57
2022/12/01 03:18:59;;;;;;;8.68;4.95;;;;;;;;;;5066513;28;20032;-58
2022/12/01 03:21:32;;;;;;;10.57;5.90;;;;;;;;;;5076766;28;20067;-58
2022/12/01 03:24:00;;;;;;;12.70;5.97;;;;;;;;;;5067571;28;20115;-58
2022/12/01 03:26:26;;;;;;;10.50;6.07;;;;;;;;;;5068092;28;20155;-58
2022/12/01 03:28:53;;;;;;;10.27;5.95;;;;;;;;;;5076607;28;20430;-58
2022/12/01 03:31:19;;;;;;;12.48;6.40;;;;;;;;;;5073018;28;20081;-58
2022/12/01 03:34:08;;;;;;;11.85;6.70;;;;;;;;;;5070210;28;20434;-58
2022/12/01 03:36:37;;;;;;;10.77;6.10;;;;;;;;;;5065119;28;20082;-58
2022/12/01 03:39:04;;;;;;;9.57;5.68;;;;;;;;;;5072945;28;20041;-58
2022/12/01 03:41:36;;;;;;;9.68;6.40;;;;;;;;;;5064718;28;20027;-58
2022/12/01 03:44:13;;;;;;;9.52;6.10;;;;;;;;;;5068674;28;20032;-58
2022/12/01 03:46:41;;;;;;;11.50;6.25;;;;;;;;;;5072484;28;20036;-57
2022/12/01 03:49:08;;;;;;;11.38;6.10;;;;;;;;;;5075455;28;20230;-58
2022/12/01 03:51:54;;;;;;;8.38;5.47;;;;;;;;;;5070551;28;20028;-58
2022/12/01 03:54:38;;;;;;;10.68;6.28;;;;;;;;;;5068444;28;20028;-58
2022/12/01 03:57:04;;;;;;;9.90;5.80;;;;;;;;;;5072102;28;20066;-58
2022/12/01 03:59:29;;;;;;;10.40;6.55;;;;;;;;;;5057747;28;20032;-58
2022/12/01 04:01:55;;;;;;;9.55;5.93;;;;;;;;;;5077016;28;20368;-58
2022/12/01 04:04:21;;;;;;;11.45;6.38;;;;;;;;;;5070623;28;20081;-58
2022/12/01 04:06:46;;;;;;;11.93;6.65;;;;;;;;;;5073033;28;20351;-58
2022/12/01 04:09:12;;;;;;;11.40;6.70;;;;;;;;;;5075953;28;20024;-58
2022/12/01 04:14:21;;;;;;;10.70;6.60;;;;;;;;;;5067061;28;20071;-58
2022/12/01 04:16:47;;;;;;;9.45;5.57;;;;;;;;;;5069822;28;20031;-58
2022/12/01 04:19:12;;;;;;;10.73;6.55;;;;;;;;;;5074613;28;20027;-58
2022/12/01 04:21:38;;;;;;;10.95;6.65;;;;;;;;;;5075458;28;20119;-58
2022/12/01 04:24:03;;;;;;;12.43;6.72;;;;;;;;;;5070925;28;20039;-58
2022/12/01 04:26:32;;;;;;;12.80;7.07;;;;;;;;;;5067628;28;20044;-58
2022/12/01 04:28:58;;;;;;;11.50;6.70;;;;;;;;;;5071887;28;20024;-58
2022/12/01 04:31:23;;;;;;;11.23;6.93;;;;;;;;;;5065292;28;20050;-58
2022/12/01 04:33:48;;;;;;;12.85;7.05;;;;;;;;;;5070149;28;20109;-58
2022/12/01 04:36:14;;;;;;;12.10;6.90;;;;;;;;;;5065881;28;20089;-58
2022/12/01 04:38:39;;;;;;;13.05;7.03;;;;;;;;;;5067222;28;20078;-58
2022/12/01 04:41:08;;;;;;;12.98;7.35;;;;;;;;;;5066413;28;20033;-58
2022/12/01 04:43:33;;;;;;;9.57;6.30;;;;;;;;;;5079335;28;20126;-58
2022/12/01 04:45:58;;;;;;;12.75;6.57;;;;;;;;;;5082884;28;20062;-58
2022/12/01 04:48:23;;;;;;;12.07;6.63;;;;;;;;;;5078512;28;20032;-58
2022/12/01 04:50:49;;;;;;;12.82;6.47;;;;;;;;;;5076683;28;20020;-58
2022/12/01 04:53:14;;;;;;;12.40;7.07;;;;;;;;;;5073335;28;20020;-58
2022/12/01 04:55:39;;;;;;;12.98;7.65;;;;;;;;;;5073741;28;20028;-58
2022/12/01 04:58:05;;;;;;;11.88;6.53;;;;;;;;;;5077599;28;20101;-58
2022/12/01 05:00:30;;;;;;;15.88;8.15;;;;;;;;;;5073867;28;20119;-57
2022/12/01 05:02:55;;;;;;;12.57;8.40;;;;;;;;;;5067691;28;20024;-57
2022/12/01 05:05:20;;;;;;;12.50;7.53;;;;;;;;;;5075579;28;20072;-58
2022/12/01 05:07:46;;;;;;;15.48;9.10;;;;;;;;;;5080711;28;20029;-57
2022/12/01 05:10:13;;;;;;;14.18;8.02;;;;;;;;;;5077950;28;20050;-57
2022/12/01 05:12:39;;;;;;;17.42;9.20;;;;;;;;;;5078934;28;20338;-57
2022/12/01 05:15:05;;;;;;;16.88;9.43;;;;;;;;;;5079443;28;20025;-57
2022/12/01 05:17:30;;;;;;;15.82;9.05;;;;;;;;;;5075125;28;20110;-58
2022/12/01 05:22:39;;;;;;;16.70;9.55;;;;;;;;;;5076183;28;20493;-57
2022/12/01 05:25:05;;;;;;;23.88;10.80;;;;;;;;;;5069682;28;20028;-57
2022/12/01 05:27:30;;;;;;;20.70;10.10;;;;;;;;;;5071441;28;20506;-57
2022/12/01 05:29:55;;;;;;;18.83;10.82;;;;;;;;;;5076089;28;20020;-58
2022/12/01 05:32:20;;;;;;;17.27;10.32;;;;;;;;;;5075732;28;20032;-58
2022/12/01 05:34:46;;;;;;;18.92;10.27;;;;;;;;;;5076536;28;20077;-57
2022/12/01 05:37:11;;;;;;;18.17;10.38;;;;;;;;;;5089495;28;20047;-57
2022/12/01 05:39:38;;;;;;;22.80;11.30;;;;;;;;;;5076124;28;20025;-57
2022/12/01 05:42:04;;;;;;;19.63;10.23;;;;;;;;;;5073151;28;20032;-57
2022/12/01 05:44:29;;;;;;;19.50;10.60;;;;;;;;;;5076334;28;20066;-57
2022/12/01 05:46:54;;;;;;;19.98;10.75;;;;;;;;;;5076257;28;20028;-58
2022/12/01 05:49:19;;;;;;;18.48;10.77;;;;;;;;;;5076338;28;20020;-57
2022/12/01 05:51:45;;;;;;;17.45;10.27;;;;;;;;;;5076558;28;20120;-58
2022/12/01 05:54:17;;;;;;;19.35;10.27;;;;;;;;;;5071498;28;20558;-57
2022/12/01 05:56:43;;;;;;;21.52;11.98;;;;;;;;;;5071106;28;20036;-57
2022/12/01 05:59:08;;;;;;;17.85;9.60;;;;;;;;;;5075554;28;20153;-57
2022/12/01 06:01:33;;;;;;;17.70;10.43;;;;;;;;;;5066362;28;20029;-57
2022/12/01 06:03:58;;;;;;;29.55;12.27;;;;;;;;;;5068618;28;20251;-57
2022/12/01 06:06:24;;;;;;;19.95;10.90;;;;;;;;;;5073766;28;20409;-57
2022/12/01 06:08:49;;;;;;;23.67;13.32;;;;;;;;;;5075860;28;20394;-57
2022/12/01 06:11:14;;;;;;;55.75;31.77;;;;;;;;;;5072871;28;20439;-57
2022/12/01 06:13:39;;;;;;;26.52;13.43;;;;;;;;;;5071608;28;20429;-58
2022/12/01 06:16:05;;;;;;;23.48;12.38;;;;;;;;;;5073936;28;20237;-57
2022/12/01 06:18:31;;;;;;;21.67;11.93;;;;;;;;;;5074754;28;20020;-57
2022/12/01 06:20:56;;;;;;;22.38;11.43;;;;;;;;;;5074045;28;20120;-57
2022/12/01 06:23:21;;;;;;;21.58;13.05;;;;;;;;;;5072582;28;20020;-57
2022/12/01 06:25:47;;;;;;;24.45;12.43;;;;;;;;;;5075155;28;20029;-57
2022/12/01 06:28:12;;;;;;;23.48;12.10;;;;;;;;;;5074293;28;20458;-57
2022/12/01 06:30:37;;;;;;;23.85;11.73;;;;;;;;;;5077695;28;20506;-57
2022/12/01 06:33:02;;;;;;;26.35;12.45;;;;;;;;;;5071912;28;20115;-58
2022/12/01 06:35:28;;;;;;;22.80;12.73;;;;;;;;;;5066189;28;20042;-57
2022/12/01 06:37:53;;;;;;;21.58;11.00;;;;;;;;;;5074703;28;20127;-57
2022/12/01 06:40:18;;;;;;;24.80;12.82;;;;;;;;;;5065733;28;20403;-57
2022/12/01 06:42:43;;;;;;;22.27;11.70;;;;;;;;;;5077764;28;20344;-57
2022/12/01 06:45:09;;;;;;;23.00;11.73;;;;;;;;;;5071649;28;20438;-57
2022/12/01 06:47:35;;;;;;;23.40;12.27;;;;;;;;;;5075452;28;20114;-57
2022/12/01 06:50:00;;;;;;;21.70;11.95;;;;;;;;;;5069767;28;20222;-57
2022/12/01 06:52:25;;;;;;;34.60;12.93;;;;;;;;;;5071825;28;20382;-57
2022/12/01 06:54:50;;;;;;;23.92;12.52;;;;;;;;;;5067307;28;20024;-56
2022/12/01 06:57:15;;;;;;;26.80;13.05;;;;;;;;;;5070357;28;20016;-58
2022/12/01 06:59:41;;;;;;;25.13;13.38;;;;;;;;;;5079635;28;20039;-56
2022/12/01 07:02:08;;;;;;;26.42;13.95;;;;;;;;;;5071305;28;20598;-56
2022/12/01 07:04:33;;;;;;;27.42;12.95;;;;;;;;;;5077853;28;20048;-56
2022/12/01 07:06:58;;;;;;;27.58;13.93;;;;;;;;;;5073074;28;20481;-56
2022/12/01 07:09:24;;;;;;;29.20;16.95;;;;;;;;;;5075942;28;20395;-57
2022/12/01 07:11:49;;;;;;;23.25;12.82;;;;;;;;;;5075701;28;20166;-56
2022/12/01 07:14:15;;;;;;;26.83;12.50;;;;;;;;;;5074118;28;20115;-56
2022/12/01 07:16:40;;;;;;;29.00;15.63;;;;;;;;;;5074203;28;20096;-56
2022/12/01 07:19:06;;;;;;;22.98;13.25;;;;;;;;;;5075876;28;20405;-56
2022/12/01 07:21:31;;;;;;;26.17;13.75;;;;;;;;;;5069308;28;20097;-56
2022/12/01 07:23:57;;;;;;;28.60;13.90;;;;;;;;;;5074787;28;20440;-56
2022/12/01 07:26:22;;;;;;;27.75;13.20;;;;;;;;;;5073053;28;20028;-58
2022/12/01 07:28:48;;;;;;;28.20;15.07;;;;;;;;;;5071737;28;20028;-58
2022/12/01 07:31:14;;;;;;;26.83;13.43;;;;;;;;;;5074658;28;20026;-58
2022/12/01 07:33:39;;;;;;;26.50;14.05;;;;;;;;;;5070144;28;20490;-57
2022/12/01 07:36:05;;;;;;;27.27;15.13;;;;;;;;;;5074177;28;20032;-58
2022/12/01 07:38:30;;;;;;;27.60;14.20;;;;;;;;;;5077031;28;20031;-58
2022/12/01 07:41:05;;;;;;;23.70;13.27;;;;;;;;;;5075393;28;20025;-58
2022/12/01 07:43:30;;;;;;;29.15;13.80;;;;;;;;;;5068687;28;20179;-58
2022/12/01 07:45:56;;;;;;;63.15;31.60;;;;;;;;;;5079044;28;20549;-56
2022/12/01 07:48:21;;;;;;;22.30;13.18;;;;;;;;;;5079011;28;20427;-56
2022/12/01 07:50:46;;;;;;;25.30;13.52;;;;;;;;;;5070799;28;20020;-59
2022/12/01 07:53:12;;;;;;;24.02;12.65;;;;;;;;;;5076440;28;20012;-58
2022/12/01 07:55:37;;;;;;;20.45;11.82;;;;;;;;;;5070893;28;20036;-58
2022/12/01 07:58:02;;;;;;;24.85;13.30;;;;;;;;;;5072099;28;20495;-58
2022/12/01 08:00:27;;;;;;;27.10;13.80;;;;;;;;;;5076774;28;20035;-58
2022/12/01 08:02:53;;;;;;;26.58;13.00;;;;;;;;;;5075617;28;20063;-57
2022/12/01 08:05:18;;;;;;;29.48;17.77;;;;;;;;;;5073751;28;20134;-58
2022/12/01 08:07:43;;;;;;;26.23;14.45;;;;;;;;;;5074163;28;20181;-58
2022/12/01 08:10:09;;;;;;;25.35;13.40;;;;;;;;;;5076304;28;20038;-58
2022/12/01 08:12:34;;;;;;;23.58;12.93;;;;;;;;;;5076665;28;20024;-58
2022/12/01 08:14:59;;;;;;;25.02;14.85;;;;;;;;;;5075756;28;20205;-58
2022/12/01 08:17:24;;;;;;;26.63;14.05;;;;;;;;;;5072770;28;20327;-58
2022/12/01 08:19:50;;;;;;;29.60;16.40;;;;;;;;;;5079684;28;20051;-58
2022/12/01 08:22:15;;;;;;;28.17;15.45;;;;;;;;;;5069367;28;20074;-58
2022/12/01 08:24:40;;;;;;;27.38;14.20;;;;;;;;;;5074608;28;20473;-58
2022/12/01 08:27:06;;;;;;;28.95;14.00;;;;;;;;;;5071159;28;20080;-58
2022/12/01 08:29:31;;;;;;;23.17;13.60;;;;;;;;;;5078538;28;20016;-58
2022/12/01 08:31:57;;;;;;;27.95;15.77;;;;;;;;;;5070985;28;20558;-57
2022/12/01 08:34:22;;;;;;;26.98;14.40;;;;;;;;;;5069145;28;20116;-57
2022/12/01 08:36:47;;;;;;;30.08;14.73;;;;;;;;;;5069245;28;20032;-57
2022/12/01 08:39:13;;;;;;;30.38;15.52;;;;;;;;;;5073222;28;20082;-58
2022/12/01 08:41:38;;;;;;;26.80;14.25;;;;;;;;;;5075265;28;20057;-57
2022/12/01 08:44:03;;;;;;;27.77;13.73;;;;;;;;;;5073547;28;20043;-57
2022/12/01 08:46:32;;;;;;;31.58;13.80;;;;;;;;;;5073093;28;20039;-57
2022/12/01 08:48:57;;;;;;;26.00;14.90;;;;;;;;;;5073399;28;20465;-57
2022/12/01 08:51:22;;;;;;;29.40;14.70;;;;;;;;;;5073764;28;20051;-57
2022/12/01 08:53:48;;;;;;;27.17;14.32;;;;;;;;;;5074090;28;20110;-57
2022/12/01 08:56:14;;;;;;;28.48;13.63;;;;;;;;;;5068529;28;20039;-57
2022/12/01 08:58:39;;;;;;;28.00;14.85;;;;;;;;;;5075628;28;20399;-58
2022/12/01 09:01:06;;;;;;;30.08;15.13;;;;;;;;;;5075250;28;20128;-58
2022/12/01 09:03:32;;;;;;;33.30;14.88;;;;;;;;;;5071067;28;20029;-58
2022/12/01 09:06:03;;;;;;;28.58;13.77;;;;;;;;;;5073292;28;20419;-57
2022/12/01 09:08:32;;;;;;;28.95;15.05;;;;;;;;;;5075842;28;20312;-58
2022/12/01 09:10:58;;;;;;;36.95;18.83;;;;;;;;;;5067386;28;20112;-58
2022/12/01 09:13:24;;;;;;;25.75;14.00;;;;;;;;;;5074738;28;20027;-57
2022/12/01 09:15:58;;;;;;;33.58;16.35;;;;;;;;;;5076490;28;20077;-57
2022/12/01 09:18:24;;;;;;;33.72;16.23;;;;;;;;;;5076827;28;20430;-58
2022/12/01 09:20:49;;;;;;;32.08;16.10;;;;;;;;;;5076307;28;20134;-57
2022/12/01 09:23:15;;;;;;;34.40;15.98;;;;;;;;;;5075510;28;20032;-57
2022/12/01 09:25:40;;;;;;;33.42;17.95;;;;;;;;;;5074919;28;20306;-57
2022/12/01 09:28:05;;;;;;;29.10;15.35;;;;;;;;;;5073251;28;20413;-57
2022/12/01 09:30:30;;;;;;;32.42;15.77;;;;;;;;;;5075827;28;20162;-57
2022/12/01 09:32:56;;;;;;;31.90;15.88;;;;;;;;;;5075907;28;20150;-57
2022/12/01 09:35:21;;;;;;;31.77;16.00;;;;;;;;;;5075171;28;20031;-57
2022/12/01 09:37:46;;;;;;;33.05;16.15;;;;;;;;;;5073588;28;20016;-57
2022/12/01 09:40:15;;;;;;;37.22;15.65;;;;;;;;;;5079825;28;20028;-59
2022/12/01 09:42:40;;;;;;;28.23;14.55;;;;;;;;;;5076994;28;20410;-57
2022/12/01 09:45:06;;;;;;;28.33;13.75;;;;;;;;;;5075733;28;20026;-57
2022/12/01 09:47:34;;;;;;;32.85;15.57;;;;;;;;;;5076940;28;20020;-57
2022/12/01 09:50:01;;;;;;;28.63;15.63;;;;;;;;;;5073727;28;20288;-57
2022/12/01 09:52:28;;;;;;;28.80;14.00;;;;;;;;;;5078315;28;20020;-59
2022/12/01 09:54:54;;;;;;;30.42;15.73;;;;;;;;;;5076900;28;20089;-57
2022/12/01 09:57:25;;;;;;;29.08;15.57;;;;;;;;;;5073421;28;20502;-57
2022/12/01 09:59:50;;;;;;;32.45;16.17;;;;;;;;;;5076631;28;20024;-57
2022/12/01 10:02:25;;;;;;;32.00;17.38;;;;;;;;;;5079959;28;20034;-57
2022/12/01 10:04:50;;;;;;;30.55;16.17;;;;;;;;;;5079482;28;20051;-57
2022/12/01 10:07:17;;;;;;;32.50;16.70;;;;;;;;;;5091784;28;20043;-57
2022/12/01 10:09:46;;;;;;;31.90;15.65;;;;;;;;;;5073770;28;20020;-59
2022/12/01 10:12:15;;;;;;;30.58;15.05;;;;;;;;;;5077101;28;20031;-59
2022/12/01 10:14:42;;;;;;;29.73;15.88;;;;;;;;;;5075010;28;20463;-59
2022/12/01 10:17:17;;;;;;;30.00;16.35;;;;;;;;;;5075986;28;20422;-59
2022/12/01 10:19:52;;;;;;;35.22;16.85;;;;;;;;;;5073021;28;20036;-57
2022/12/01 10:22:38;;;;;;;35.92;16.50;;;;;;;;;;5072669;28;20364;-58
2022/12/01 10:25:22;;;;;;;29.58;16.02;;;;;;;;;;5073399;28;20114;-59
2022/12/01 10:28:04;;;;;;;26.70;14.98;;;;;;;;;;5076989;28;20035;-58
2022/12/01 10:30:29;;;;;;;33.47;17.35;;;;;;;;;;5067920;28;20073;-58
2022/12/01 10:32:58;;;;;;;38.13;17.88;;;;;;;;;;5071321;28;20032;-58
2022/12/01 10:35:23;;;;;;;31.10;16.27;;;;;;;;;;5074153;28;20421;-58
2022/12/01 10:38:00;;;;;;;30.55;15.68;;;;;;;;;;5080760;28;20048;-58
2022/12/01 10:40:25;;;;;;;35.08;18.67;;;;;;;;;;5075005;28;20389;-58
2022/12/01 10:42:51;;;;;;;30.35;16.23;;;;;;;;;;5074238;28;20478;-58
2022/12/01 10:45:23;;;;;;;35.50;17.13;;;;;;;;;;5076793;28;20024;-58
2022/12/01 10:48:14;;;;;;;32.22;17.75;;;;;;;;;;5073650;28;20131;-58
2022/12/01 10:50:43;;;;;;;35.35;17.10;;;;;;;;;;5075510;28;20031;-58
2022/12/01 10:53:28;;;;;;;36.65;18.45;;;;;;;;;;5074459;28;20032;-57
2022/12/01 10:56:04;;;;;;;35.92;17.80;;;;;;;;;;5076748;28;20040;-57
2022/12/01 10:58:30;;;;;;;32.38;17.85;;;;;;;;;;5076551;28;20112;-57
2022/12/01 11:00:57;;;;;;;29.15;15.95;;;;;;;;;;5080256;28;20040;-57
2022/12/01 11:03:22;;;;;;;28.73;15.00;;;;;;;;;;5072312;28;20455;-57
2022/12/01 11:05:54;;;;;;;28.02;14.90;;;;;;;;;;5074156;28;20131;-57
2022/12/01 11:08:20;;;;;;;33.05;16.13;;;;;;;;;;5073894;28;20036;-57
2022/12/01 11:10:46;;;;;;;32.28;14.93;;;;;;;;;;5076042;28;20024;-57
2022/12/01 11:13:30;;;;;;;31.98;15.85;;;;;;;;;;5075443;28;20042;-57
2022/12/01 11:15:59;;;;;;;23.27;12.57;;;;;;;;;;5070550;28;20490;-57
2022/12/01 11:18:28;;;;;;;36.55;13.35;;;;;;;;;;5074254;28;20365;-58
2022/12/01 11:21:05;;;;;;;23.20;11.48;;;;;;;;;;5075820;28;20541;-58
2022/12/01 11:23:30;;;;;;;28.55;12.63;;;;;;;;;;5077308;28;20586;-58
2022/12/01 11:25:56;;;;;;;25.02;12.27;;;;;;;;;;5072559;28;20076;-57
2022/12/01 11:28:21;;;;;;;23.98;12.27;;;;;;;;;;5073069;28;20571;-57
2022/12/01 11:30:46;;;;;;;23.85;13.10;;;;;;;;;;5071732;28;20021;-58
2022/12/01 11:33:12;;;;;;;23.58;11.38;;;;;;;;;;5073559;28;20043;-58
2022/12/01 11:35:37;;;;;;;22.25;10.90;;;;;;;;;;5071869;28;20746;-58
2022/12/01 11:38:03;;;;;;;30.50;13.75;;;;;;;;;;5072136;28;20081;-58
2022/12/01 11:40:29;;;;;;;26.60;11.90;;;;;;;;;;5066434;28;20044;-58
2022/12/01 11:42:56;;;;;;;25.33;11.88;;;;;;;;;;5065012;28;20028;-58
2022/12/01 11:45:32;;;;;;;25.75;13.05;;;;;;;;;;5076286;28;20039;-57
2022/12/01 11:48:02;;;;;;;33.67;16.80;;;;;;;;;;5071184;28;20089;-57
2022/12/01 11:50:28;;;;;;;28.47;13.20;;;;;;;;;;5071209;28;20363;-57
2022/12/01 11:52:54;;;;;;;24.50;11.60;;;;;;;;;;5071608;28;20024;-57
2022/12/01 11:55:23;;;;;;;31.40;13.73;;;;;;;;;;5065022;28;20016;-57
2022/12/01 11:57:49;;;;;;;27.45;13.10;;;;;;;;;;5066564;28;20784;-58
2022/12/01 12:00:15;;;;;;;29.45;13.60;;;;;;;;;;5076188;28;20023;-58
2022/12/01 12:02:47;;;;;;;27.52;14.15;;;;;;;;;;5078992;28;20024;-58
2022/12/01 12:05:31;;;;;;;29.60;12.85;;;;;;;;;;5068393;28;20427;-56
2022/12/01 12:08:06;;;;;;;28.20;12.93;;;;;;;;;;5069243;28;20028;-58
2022/12/01 12:10:43;;;;;;;29.02;12.15;;;;;;;;;;5070627;28;20029;-57
2022/12/01 12:13:14;;;;;;;30.75;14.18;;;;;;;;;;5072587;28;20407;-58
2022/12/01 12:16:00;;;;;;;35.40;14.32;;;;;;;;;;5069996;28;20073;-58
2022/12/01 12:18:36;;;;;;;23.98;11.05;;;;;;;;;;5072946;28;20020;-58
2022/12/01 12:21:01;;;;;;;27.52;14.35;;;;;;;;;;5064708;28;20107;-57
2022/12/01 12:23:46;;;;;;;31.27;13.73;;;;;;;;;;5074765;28;20508;-58
2022/12/01 12:26:22;;;;;;;28.50;13.50;;;;;;;;;;5076151;28;20072;-58
2022/12/01 12:28:50;;;;;;;29.95;13.20;;;;;;;;;;5069451;28;20016;-58
2022/12/01 12:31:22;;;;;;;25.17;11.73;;;;;;;;;;5071804;28;20040;-57
2022/12/01 12:34:10;;;;;;;27.52;13.40;;;;;;;;;;5067855;28;20122;-58
2022/12/01 12:36:36;;;;;;;27.92;13.20;;;;;;;;;;5072724;28;20077;-57
2022/12/01 12:39:01;;;;;;;30.13;13.63;;;;;;;;;;5073121;28;20025;-57
2022/12/01 12:41:37;;;;;;;33.47;15.75;;;;;;;;;;5078165;28;20032;-58
2022/12/01 12:44:15;;;;;;;27.45;13.38;;;;;;;;;;5062839;28;20029;-57
2022/12/01 12:46:59;;;;;;;28.52;12.80;;;;;;;;;;5077150;28;20100;-58
2022/12/01 12:49:30;;;;;;;30.15;13.90;;;;;;;;;;5074546;28;20034;-58
2022/12/01 12:52:03;;;;;;;29.42;15.35;;;;;;;;;;5071237;28;20510;-58
2022/12/01 12:54:30;;;;;;;31.08;14.02;;;;;;;;;;5065837;28;20067;-58
2022/12/01 12:56:58;;;;;;;31.77;16.13;;;;;;;;;;5063672;28;20364;-58
2022/12/01 12:59:52;;;;;;;31.25;13.75;;;;;;;;;;5073383;28;20032;-58
2022/12/01 13:02:31;;;;;;;29.00;14.88;;;;;;;;;;5064740;28;20095;-58
2022/12/01 13:04:57;;;;;;;43.67;27.30;;;;;;;;;;5080682;28;20076;-58
2022/12/01 13:07:22;;;;;;;32.28;16.00;;;;;;;;;;5074636;28;20494;-58
2022/12/01 13:09:52;;;;;;;32.05;15.80;;;;;;;;;;5081122;28;20635;-58
2022/12/01 13:12:17;;;;;;;27.92;13.43;;;;;;;;;;5076387;28;20435;-58
2022/12/01 13:15:02;;;;;;;37.97;17.77;;;;;;;;;;5081311;28;20031;-58
2022/12/01 13:17:32;;;;;;;35.22;16.92;;;;;;;;;;5078386;28;20634;-58
2022/12/01 13:19:57;;;;;;;;;;;;;;;;;;5073750;28;20106;-58
2022/12/01 13:22:25;;;;;;;28.38;12.90;;;;;;;;;;5088671;28;19916;-58
2022/12/01 13:24:50;;;;;;;26.50;12.95;;;;;;;;;;5075069;28;20330;-58
2022/12/01 13:27:19;;;;;;;26.83;12.18;;;;;;;;;;5073698;28;20031;-58
2022/12/01 13:29:46;;;;;;;28.83;13.18;;;;;;;;;;5072097;28;20304;-58
2022/12/01 13:32:32;;;;;;;31.70;14.50;;;;;;;;;;5069761;28;20127;-58
2022/12/01 13:35:01;;;;;;;26.58;13.40;;;;;;;;;;5074979;28;20125;-58
2022/12/01 13:37:33;;;;;;;26.73;14.25;;;;;;;;;;5075507;28;20036;-59
2022/12/01 13:40:09;;;;;;;31.20;13.63;;;;;;;;;;5079508;28;20019;-58
2022/12/01 13:42:34;;;;;;;29.05;14.10;;;;;;;;;;5075778;28;20097;-58
2022/12/01 13:45:00;;;;;;;28.23;13.95;;;;;;;;;;5076617;28;20212;-58
2022/12/01 13:47:30;;;;;;;26.33;13.48;;;;;;;;;;5073817;28;20102;-58
2022/12/01 13:49:57;;;;;;;28.58;13.02;;;;;;;;;;5076860;28;20107;-58
2022/12/01 13:52:25;;;;;;;30.65;13.38;;;;;;;;;;5071358;28;20032;-58
2022/12/01 13:55:02;;;;;;;32.83;14.35;;;;;;;;;;5075915;28;20024;-58
2022/12/01 13:57:29;;;;;;;30.88;14.80;;;;;;;;;;5075298;28;20503;-59
2022/12/01 14:00:02;;;;;;;29.17;13.88;;;;;;;;;;5078386;28;20096;-58
2022/12/01 14:02:31;;;;;;;26.02;14.10;;;;;;;;;;5075834;28;20033;-58
2022/12/01 14:05:32;;;;;;;27.45;14.18;;;;;;;;;;5070825;28;20059;-58
2022/12/01 14:07:57;;;;;;;26.85;13.43;;;;;;;;;;5086159;28;20138;-58
2022/12/01 14:10:26;;;;;;;40.92;19.63;;;;;;;;;;5076397;28;20108;-58
2022/12/01 14:12:52;;;;;;;46.95;21.60;;;;;;;;;;5070608;28;20528;-58
2022/12/01 14:15:28;;;;;;;58.03;24.75;;;;;;;;;;5073365;28;20047;-56
2022/12/01 14:18:01;;;;;;;39.67;16.77;;;;;;;;;;5071374;28;20436;-57
2022/12/01 14:20:27;;;;;;;53.17;22.50;;;;;;;;;;5075009;28;20043;-56
2022/12/01 14:23:02;;;;;;;37.63;17.63;;;;;;;;;;5078864;28;20022;-56
2022/12/01 14:25:29;;;;;;;36.65;15.82;;;;;;;;;;5067608;28;20032;-58
2022/12/01 14:28:01;;;;;;;47.78;20.67;;;;;;;;;;5062374;28;20115;-56
2022/12/01 14:30:44;;;;;;;38.65;19.08;;;;;;;;;;5075017;28;20017;-57
2022/12/01 14:33:28;;;;;;;38.03;17.27;;;;;;;;;;5072783;28;20459;-57
2022/12/01 14:35:53;;;;;;;35.03;15.77;;;;;;;;;;5075864;28;20020;-57